sensor_id;sensor_type;location;lat;lon;timestamp;P1;durP1;ratioP1;P2;durP2;ratioP2
2388;SDS011;1205;47.984;7.668;2024-02-15T00:01:30;3.13;;;2.03;;
2388;SDS011;1205;47.984;7.668;2024-02-15T00:03:56;1.67;;;1.67;;
2388;SDS011;1205;47.984;7.668;2024-02-15T00:06:22;2.40;;;2.30;;
2388;SDS011;1205;47.984;7.668;2024-02-15T00:08:48;2.00;;;1.90;;
2388;SDS011;1205;47.984;7.668;2024-02-15T00:11:17;2.73;;;2.53;;
2388;SDS011;1205;47.984;7.668;2024-02-15T00:13:43;2.80;;;2.53;;
2388;SDS011;1205;47.984;7.668;2024-02-15T00:16:12;6.00;;;2.50;;
2388;SDS011;1205;47.984;7.668;2024-02-15T00:18:38;3.23;;;2.30;;
2388;SDS011;1205;47.984;7.668;2024-02-15T00:21:04;2.93;;;2.47;;
2388;SDS011;1205;47.984;7.668;2024-02-15T00:23:30;4.70;;;2.83;;
2388;SDS011;1205;47.984;7.668;2024-02-15T00:25:57;6.43;;;2.90;;
2388;SDS011;1205;47.984;7.668;2024-02-15T00:28:23;8.60;;;3.30;;
2388;SDS011;1205;47.984;7.668;2024-02-15T00:30:49;4.10;;;3.70;;
2388;SDS011;1205;47.984;7.668;2024-02-15T00:33:15;4.00;;;2.77;;
2388;SDS011;1205;47.984;7.668;2024-02-15T00:35:41;3.33;;;2.40;;
2388;SDS011;1205;47.984;7.668;2024-02-15T00:38:06;3.47;;;2.57;;
2388;SDS011;1205;47.984;7.668;2024-02-15T00:40:32;2.83;;;2.33;;
2388;SDS011;1205;47.984;7.668;2024-02-15T00:42:57;2.87;;;2.00;;
2388;SDS011;1205;47.984;7.668;2024-02-15T00:45:23;1.97;;;1.87;;
2388;SDS011;1205;47.984;7.668;2024-02-15T00:47:49;2.87;;;1.80;;
2388;SDS011;1205;47.984;7.668;2024-02-15T00:50:14;5.80;;;2.30;;
2388;SDS011;1205;47.984;7.668;2024-02-15T00:52:40;4.57;;;2.10;;
2388;SDS011;1205;47.984;7.668;2024-02-15T00:55:05;2.80;;;2.10;;
2388;SDS011;1205;47.984;7.668;2024-02-15T00:57:31;2.87;;;2.10;;
2388;SDS011;1205;47.984;7.668;2024-02-15T00:59:57;2.17;;;1.60;;
2388;SDS011;1205;47.984;7.668;2024-02-15T01:02:23;2.73;;;2.27;;
2388;SDS011;1205;47.984;7.668;2024-02-15T01:04:49;5.37;;;2.47;;
2388;SDS011;1205;47.984;7.668;2024-02-15T01:07:15;2.90;;;1.90;;
2388;SDS011;1205;47.984;7.668;2024-02-15T01:09:41;4.60;;;2.30;;
2388;SDS011;1205;47.984;7.668;2024-02-15T01:12:06;3.20;;;1.93;;
2388;SDS011;1205;47.984;7.668;2024-02-15T01:14:32;3.70;;;2.80;;
2388;SDS011;1205;47.984;7.668;2024-02-15T01:16:58;6.03;;;3.27;;
2388;SDS011;1205;47.984;7.668;2024-02-15T01:19:23;5.63;;;3.00;;
2388;SDS011;1205;47.984;7.668;2024-02-15T01:21:49;4.00;;;2.73;;
2388;SDS011;1205;47.984;7.668;2024-02-15T01:24:15;7.80;;;2.57;;
2388;SDS011;1205;47.984;7.668;2024-02-15T01:26:40;2.77;;;2.57;;
2388;SDS011;1205;47.984;7.668;2024-02-15T01:29:06;2.30;;;2.10;;
2388;SDS011;1205;47.984;7.668;2024-02-15T01:31:35;2.50;;;2.30;;
2388;SDS011;1205;47.984;7.668;2024-02-15T01:34:01;2.47;;;2.27;;
2388;SDS011;1205;47.984;7.668;2024-02-15T01:36:27;2.67;;;2.47;;
2388;SDS011;1205;47.984;7.668;2024-02-15T01:38:53;2.67;;;2.40;;
2388;SDS011;1205;47.984;7.668;2024-02-15T01:41:18;11.50;;;2.67;;
2388;SDS011;1205;47.984;7.668;2024-02-15T01:43:44;2.53;;;2.37;;
2388;SDS011;1205;47.984;7.668;2024-02-15T01:46:10;8.20;;;2.20;;
2388;SDS011;1205;47.984;7.668;2024-02-15T01:48:37;2.97;;;2.07;;
2388;SDS011;1205;47.984;7.668;2024-02-15T01:51:04;2.37;;;2.13;;
2388;SDS011;1205;47.984;7.668;2024-02-15T01:53:31;2.50;;;2.30;;
2388;SDS011;1205;47.984;7.668;2024-02-15T01:55:57;6.03;;;2.93;;
2388;SDS011;1205;47.984;7.668;2024-02-15T01:58:25;3.97;;;2.60;;
2388;SDS011;1205;47.984;7.668;2024-02-15T02:00:52;4.80;;;2.20;;
2388;SDS011;1205;47.984;7.668;2024-02-15T02:03:18;4.23;;;2.77;;
2388;SDS011;1205;47.984;7.668;2024-02-15T02:05:46;5.13;;;2.50;;
2388;SDS011;1205;47.984;7.668;2024-02-15T02:08:12;3.43;;;2.43;;
2388;SDS011;1205;47.984;7.668;2024-02-15T02:10:40;5.97;;;2.13;;
2388;SDS011;1205;47.984;7.668;2024-02-15T02:13:07;2.00;;;1.90;;
2388;SDS011;1205;47.984;7.668;2024-02-15T02:15:34;4.67;;;2.30;;
2388;SDS011;1205;47.984;7.668;2024-02-15T02:18:02;3.40;;;3.10;;
2388;SDS011;1205;47.984;7.668;2024-02-15T02:20:31;2.53;;;2.20;;
2388;SDS011;1205;47.984;7.668;2024-02-15T02:23:15;2.90;;;2.60;;
2388;SDS011;1205;47.984;7.668;2024-02-15T02:25:43;3.30;;;3.00;;
2388;SDS011;1205;47.984;7.668;2024-02-15T02:28:09;2.87;;;2.60;;
2388;SDS011;1205;47.984;7.668;2024-02-15T02:30:35;2.63;;;2.40;;
2388;SDS011;1205;47.984;7.668;2024-02-15T02:33:01;3.43;;;2.47;;
2388;SDS011;1205;47.984;7.668;2024-02-15T02:35:26;3.60;;;3.30;;
2388;SDS011;1205;47.984;7.668;2024-02-15T02:37:54;3.47;;;3.17;;
2388;SDS011;1205;47.984;7.668;2024-02-15T02:40:21;3.90;;;2.70;;
2388;SDS011;1205;47.984;7.668;2024-02-15T02:42:54;3.70;;;3.27;;
2388;SDS011;1205;47.984;7.668;2024-02-15T02:45:21;3.50;;;3.20;;
2388;SDS011;1205;47.984;7.668;2024-02-15T02:47:50;4.53;;;3.10;;
2388;SDS011;1205;47.984;7.668;2024-02-15T02:50:17;3.17;;;2.97;;
2388;SDS011;1205;47.984;7.668;2024-02-15T02:52:44;6.20;;;4.03;;
2388;SDS011;1205;47.984;7.668;2024-02-15T02:55:09;4.87;;;3.20;;
2388;SDS011;1205;47.984;7.668;2024-02-15T02:57:36;5.83;;;3.30;;
2388;SDS011;1205;47.984;7.668;2024-02-15T03:00:03;9.23;;;3.50;;
2388;SDS011;1205;47.984;7.668;2024-02-15T03:02:33;6.30;;;3.57;;
2388;SDS011;1205;47.984;7.668;2024-02-15T03:05:01;3.70;;;3.40;;
2388;SDS011;1205;47.984;7.668;2024-02-15T03:07:34;4.57;;;3.43;;
2388;SDS011;1205;47.984;7.668;2024-02-15T03:10:00;4.97;;;3.30;;
2388;SDS011;1205;47.984;7.668;2024-02-15T03:12:27;5.33;;;3.67;;
2388;SDS011;1205;47.984;7.668;2024-02-15T03:14:54;4.83;;;3.57;;
2388;SDS011;1205;47.984;7.668;2024-02-15T03:17:20;4.47;;;3.60;;
2388;SDS011;1205;47.984;7.668;2024-02-15T03:19:46;4.53;;;4.13;;
2388;SDS011;1205;47.984;7.668;2024-02-15T03:22:14;4.23;;;3.70;;
2388;SDS011;1205;47.984;7.668;2024-02-15T03:24:40;10.63;;;4.13;;
2388;SDS011;1205;47.984;7.668;2024-02-15T03:27:05;4.20;;;3.77;;
2388;SDS011;1205;47.984;7.668;2024-02-15T03:29:35;7.47;;;5.50;;
2388;SDS011;1205;47.984;7.668;2024-02-15T03:32:01;6.43;;;3.77;;
2388;SDS011;1205;47.984;7.668;2024-02-15T03:34:29;7.30;;;4.50;;
2388;SDS011;1205;47.984;7.668;2024-02-15T03:36:56;4.60;;;3.70;;
2388;SDS011;1205;47.984;7.668;2024-02-15T03:39:22;6.70;;;4.10;;
2388;SDS011;1205;47.984;7.668;2024-02-15T03:41:48;4.50;;;4.07;;
2388;SDS011;1205;47.984;7.668;2024-02-15T03:44:15;6.73;;;4.47;;
2388;SDS011;1205;47.984;7.668;2024-02-15T03:46:43;6.00;;;3.80;;
2388;SDS011;1205;47.984;7.668;2024-02-15T03:49:09;6.10;;;4.43;;
2388;SDS011;1205;47.984;7.668;2024-02-15T03:51:36;5.83;;;4.57;;
2388;SDS011;1205;47.984;7.668;2024-02-15T03:54:01;5.13;;;4.50;;
2388;SDS011;1205;47.984;7.668;2024-02-15T03:56:29;6.47;;;4.60;;
2388;SDS011;1205;47.984;7.668;2024-02-15T03:58:57;6.83;;;5.23;;
2388;SDS011;1205;47.984;7.668;2024-02-15T04:01:23;9.40;;;6.67;;
2388;SDS011;1205;47.984;7.668;2024-02-15T04:03:49;10.37;;;6.47;;
2388;SDS011;1205;47.984;7.668;2024-02-15T04:06:15;6.43;;;5.50;;
2388;SDS011;1205;47.984;7.668;2024-02-15T04:08:40;10.43;;;6.27;;
2388;SDS011;1205;47.984;7.668;2024-02-15T04:11:06;10.47;;;6.00;;
2388;SDS011;1205;47.984;7.668;2024-02-15T04:13:32;5.67;;;4.97;;
2388;SDS011;1205;47.984;7.668;2024-02-15T04:15:58;8.80;;;5.33;;
2388;SDS011;1205;47.984;7.668;2024-02-15T04:18:24;6.73;;;5.40;;
2388;SDS011;1205;47.984;7.668;2024-02-15T04:20:49;9.90;;;5.63;;
2388;SDS011;1205;47.984;7.668;2024-02-15T04:23:16;5.30;;;4.80;;
2388;SDS011;1205;47.984;7.668;2024-02-15T04:25:44;7.47;;;4.77;;
2388;SDS011;1205;47.984;7.668;2024-02-15T04:28:15;9.70;;;5.13;;
2388;SDS011;1205;47.984;7.668;2024-02-15T04:30:41;8.37;;;5.17;;
2388;SDS011;1205;47.984;7.668;2024-02-15T04:33:06;5.80;;;4.53;;
2388;SDS011;1205;47.984;7.668;2024-02-15T04:35:33;6.60;;;4.60;;
2388;SDS011;1205;47.984;7.668;2024-02-15T04:37:59;9.27;;;4.90;;
2388;SDS011;1205;47.984;7.668;2024-02-15T04:40:24;12.93;;;4.80;;
2388;SDS011;1205;47.984;7.668;2024-02-15T04:42:50;4.93;;;4.50;;
2388;SDS011;1205;47.984;7.668;2024-02-15T04:45:16;4.97;;;4.20;;
2388;SDS011;1205;47.984;7.668;2024-02-15T04:47:41;8.17;;;4.57;;
2388;SDS011;1205;47.984;7.668;2024-02-15T04:50:07;9.10;;;4.30;;
2388;SDS011;1205;47.984;7.668;2024-02-15T04:52:34;8.57;;;4.93;;
2388;SDS011;1205;47.984;7.668;2024-02-15T04:54:59;4.90;;;4.30;;
2388;SDS011;1205;47.984;7.668;2024-02-15T04:57:25;8.57;;;5.60;;
2388;SDS011;1205;47.984;7.668;2024-02-15T04:59:53;5.70;;;5.07;;
2388;SDS011;1205;47.984;7.668;2024-02-15T05:02:23;5.77;;;5.27;;
2388;SDS011;1205;47.984;7.668;2024-02-15T05:04:49;9.87;;;5.33;;
2388;SDS011;1205;47.984;7.668;2024-02-15T05:07:20;6.00;;;4.90;;
2388;SDS011;1205;47.984;7.668;2024-02-15T05:09:47;4.30;;;3.90;;
2388;SDS011;1205;47.984;7.668;2024-02-15T05:12:23;6.60;;;4.20;;
2388;SDS011;1205;47.984;7.668;2024-02-15T05:14:52;5.13;;;4.13;;
2388;SDS011;1205;47.984;7.668;2024-02-15T05:17:18;7.37;;;4.43;;
2388;SDS011;1205;47.984;7.668;2024-02-15T05:19:44;4.87;;;4.37;;
2388;SDS011;1205;47.984;7.668;2024-02-15T05:22:10;3.90;;;3.60;;
2388;SDS011;1205;47.984;7.668;2024-02-15T05:24:36;4.97;;;3.83;;
2388;SDS011;1205;47.984;7.668;2024-02-15T05:27:03;5.03;;;4.50;;
2388;SDS011;1205;47.984;7.668;2024-02-15T05:29:29;4.03;;;3.73;;
2388;SDS011;1205;47.984;7.668;2024-02-15T05:31:58;4.70;;;4.20;;
2388;SDS011;1205;47.984;7.668;2024-02-15T05:34:24;4.23;;;3.93;;
2388;SDS011;1205;47.984;7.668;2024-02-15T05:36:50;4.40;;;4.00;;
2388;SDS011;1205;47.984;7.668;2024-02-15T05:39:16;6.50;;;4.80;;
2388;SDS011;1205;47.984;7.668;2024-02-15T05:41:45;6.57;;;4.47;;
2388;SDS011;1205;47.984;7.668;2024-02-15T05:44:11;6.00;;;4.30;;
2388;SDS011;1205;47.984;7.668;2024-02-15T05:46:36;12.57;;;7.00;;
2388;SDS011;1205;47.984;7.668;2024-02-15T05:49:04;7.77;;;5.87;;
2388;SDS011;1205;47.984;7.668;2024-02-15T05:51:30;10.23;;;6.90;;
2388;SDS011;1205;47.984;7.668;2024-02-15T05:53:56;7.30;;;4.80;;
2388;SDS011;1205;47.984;7.668;2024-02-15T05:56:24;11.00;;;5.50;;
2388;SDS011;1205;47.984;7.668;2024-02-15T05:58:51;11.57;;;5.80;;
2388;SDS011;1205;47.984;7.668;2024-02-15T06:01:16;6.13;;;5.10;;
2388;SDS011;1205;47.984;7.668;2024-02-15T06:03:42;7.80;;;6.30;;
2388;SDS011;1205;47.984;7.668;2024-02-15T06:06:09;8.63;;;6.40;;
2388;SDS011;1205;47.984;7.668;2024-02-15T06:08:36;7.03;;;6.33;;
2388;SDS011;1205;47.984;7.668;2024-02-15T06:11:03;12.10;;;6.07;;
2388;SDS011;1205;47.984;7.668;2024-02-15T06:13:30;9.73;;;5.73;;
2388;SDS011;1205;47.984;7.668;2024-02-15T06:15:56;6.83;;;6.10;;
2388;SDS011;1205;47.984;7.668;2024-02-15T06:18:27;6.97;;;5.93;;
2388;SDS011;1205;47.984;7.668;2024-02-15T06:20:57;7.50;;;5.87;;
2388;SDS011;1205;47.984;7.668;2024-02-15T06:23:24;6.23;;;5.63;;
2388;SDS011;1205;47.984;7.668;2024-02-15T06:25:52;6.60;;;5.50;;
2388;SDS011;1205;47.984;7.668;2024-02-15T06:28:18;9.80;;;6.20;;
2388;SDS011;1205;47.984;7.668;2024-02-15T06:31:04;13.50;;;6.37;;
2388;SDS011;1205;47.984;7.668;2024-02-15T06:33:49;5.23;;;4.73;;
2388;SDS011;1205;47.984;7.668;2024-02-15T06:36:33;7.80;;;5.47;;
2388;SDS011;1205;47.984;7.668;2024-02-15T06:39:17;4.93;;;4.53;;
2388;SDS011;1205;47.984;7.668;2024-02-15T06:42:02;5.90;;;5.10;;
2388;SDS011;1205;47.984;7.668;2024-02-15T06:44:28;4.83;;;4.33;;
2388;SDS011;1205;47.984;7.668;2024-02-15T06:46:54;5.20;;;4.70;;
2388;SDS011;1205;47.984;7.668;2024-02-15T06:49:20;8.20;;;4.63;;
2388;SDS011;1205;47.984;7.668;2024-02-15T06:51:49;4.40;;;4.00;;
2388;SDS011;1205;47.984;7.668;2024-02-15T06:54:14;4.67;;;4.27;;
2388;SDS011;1205;47.984;7.668;2024-02-15T06:56:40;4.60;;;4.10;;
2388;SDS011;1205;47.984;7.668;2024-02-15T06:59:06;6.30;;;3.90;;
2388;SDS011;1205;47.984;7.668;2024-02-15T07:01:33;5.37;;;4.60;;
2388;SDS011;1205;47.984;7.668;2024-02-15T07:03:59;4.47;;;4.07;;
2388;SDS011;1205;47.984;7.668;2024-02-15T07:06:25;5.80;;;5.00;;
2388;SDS011;1205;47.984;7.668;2024-02-15T07:08:52;9.70;;;5.00;;
2388;SDS011;1205;47.984;7.668;2024-02-15T07:11:20;7.60;;;5.30;;
2388;SDS011;1205;47.984;7.668;2024-02-15T07:13:46;5.87;;;4.27;;
2388;SDS011;1205;47.984;7.668;2024-02-15T07:16:12;9.37;;;5.77;;
2388;SDS011;1205;47.984;7.668;2024-02-15T07:18:38;9.40;;;4.77;;
2388;SDS011;1205;47.984;7.668;2024-02-15T07:21:04;6.90;;;4.83;;
2388;SDS011;1205;47.984;7.668;2024-02-15T07:23:36;6.13;;;5.13;;
2388;SDS011;1205;47.984;7.668;2024-02-15T07:26:01;8.47;;;5.93;;
2388;SDS011;1205;47.984;7.668;2024-02-15T07:28:28;12.67;;;7.50;;
2388;SDS011;1205;47.984;7.668;2024-02-15T07:30:55;71.03;;;33.27;;
2388;SDS011;1205;47.984;7.668;2024-02-15T07:33:24;64.63;;;32.37;;
2388;SDS011;1205;47.984;7.668;2024-02-15T07:35:50;49.47;;;26.37;;
2388;SDS011;1205;47.984;7.668;2024-02-15T07:38:16;27.40;;;15.20;;
2388;SDS011;1205;47.984;7.668;2024-02-15T07:40:42;35.60;;;16.70;;
2388;SDS011;1205;47.984;7.668;2024-02-15T07:43:09;21.90;;;12.50;;
2388;SDS011;1205;47.984;7.668;2024-02-15T07:45:35;9.30;;;6.93;;
2388;SDS011;1205;47.984;7.668;2024-02-15T07:48:02;16.40;;;8.27;;
2388;SDS011;1205;47.984;7.668;2024-02-15T07:50:29;14.03;;;7.30;;
2388;SDS011;1205;47.984;7.668;2024-02-15T07:52:55;11.70;;;6.77;;
2388;SDS011;1205;47.984;7.668;2024-02-15T07:55:21;15.00;;;8.50;;
2388;SDS011;1205;47.984;7.668;2024-02-15T07:57:49;8.73;;;7.60;;
2388;SDS011;1205;47.984;7.668;2024-02-15T08:00:15;8.23;;;7.30;;
2388;SDS011;1205;47.984;7.668;2024-02-15T08:02:42;11.43;;;7.77;;
2388;SDS011;1205;47.984;7.668;2024-02-15T08:05:09;24.23;;;11.93;;
2388;SDS011;1205;47.984;7.668;2024-02-15T08:07:42;11.73;;;8.13;;
2388;SDS011;1205;47.984;7.668;2024-02-15T08:10:12;10.07;;;8.73;;
2388;SDS011;1205;47.984;7.668;2024-02-15T08:12:39;12.03;;;7.23;;
2388;SDS011;1205;47.984;7.668;2024-02-15T08:15:05;8.93;;;7.67;;
2388;SDS011;1205;47.984;7.668;2024-02-15T08:17:36;12.43;;;7.20;;
2388;SDS011;1205;47.984;7.668;2024-02-15T08:20:11;6.73;;;6.03;;
2388;SDS011;1205;47.984;7.668;2024-02-15T08:22:37;8.97;;;6.03;;
2388;SDS011;1205;47.984;7.668;2024-02-15T08:25:07;10.10;;;7.37;;
2388;SDS011;1205;47.984;7.668;2024-02-15T08:27:38;14.20;;;7.27;;
2388;SDS011;1205;47.984;7.668;2024-02-15T08:30:12;6.77;;;5.60;;
2388;SDS011;1205;47.984;7.668;2024-02-15T08:32:39;6.37;;;5.50;;
2388;SDS011;1205;47.984;7.668;2024-02-15T08:35:07;6.80;;;5.03;;
2388;SDS011;1205;47.984;7.668;2024-02-15T08:37:34;6.03;;;5.43;;
2388;SDS011;1205;47.984;7.668;2024-02-15T08:40:01;12.17;;;5.17;;
2388;SDS011;1205;47.984;7.668;2024-02-15T08:42:35;6.07;;;4.70;;
2388;SDS011;1205;47.984;7.668;2024-02-15T08:45:07;5.03;;;4.57;;
2388;SDS011;1205;47.984;7.668;2024-02-15T08:47:34;4.73;;;4.10;;
2388;SDS011;1205;47.984;7.668;2024-02-15T08:50:04;5.63;;;4.60;;
2388;SDS011;1205;47.984;7.668;2024-02-15T08:52:30;5.00;;;4.50;;
2388;SDS011;1205;47.984;7.668;2024-02-15T08:54:56;5.43;;;4.50;;
2388;SDS011;1205;47.984;7.668;2024-02-15T08:57:23;6.97;;;5.50;;
2388;SDS011;1205;47.984;7.668;2024-02-15T08:59:49;5.33;;;4.57;;
2388;SDS011;1205;47.984;7.668;2024-02-15T09:02:16;10.60;;;5.10;;
2388;SDS011;1205;47.984;7.668;2024-02-15T09:04:43;5.93;;;5.33;;
2388;SDS011;1205;47.984;7.668;2024-02-15T09:07:08;13.03;;;4.90;;
2388;SDS011;1205;47.984;7.668;2024-02-15T09:09:34;7.17;;;5.30;;
2388;SDS011;1205;47.984;7.668;2024-02-15T09:12:02;16.60;;;5.90;;
2388;SDS011;1205;47.984;7.668;2024-02-15T09:14:33;8.23;;;4.83;;
2388;SDS011;1205;47.984;7.668;2024-02-15T09:16:59;7.27;;;5.20;;
2388;SDS011;1205;47.984;7.668;2024-02-15T09:19:25;11.43;;;5.93;;
2388;SDS011;1205;47.984;7.668;2024-02-15T09:21:51;5.40;;;4.93;;
2388;SDS011;1205;47.984;7.668;2024-02-15T09:24:16;9.00;;;5.70;;
2388;SDS011;1205;47.984;7.668;2024-02-15T09:26:42;5.87;;;4.73;;
2388;SDS011;1205;47.984;7.668;2024-02-15T09:29:09;8.80;;;4.77;;
2388;SDS011;1205;47.984;7.668;2024-02-15T09:31:35;6.00;;;4.70;;
2388;SDS011;1205;47.984;7.668;2024-02-15T09:34:01;10.60;;;5.20;;
2388;SDS011;1205;47.984;7.668;2024-02-15T09:36:33;5.23;;;4.60;;
2388;SDS011;1205;47.984;7.668;2024-02-15T09:38:59;6.10;;;5.07;;
2388;SDS011;1205;47.984;7.668;2024-02-15T09:41:25;5.43;;;4.93;;
2388;SDS011;1205;47.984;7.668;2024-02-15T09:43:50;4.70;;;4.30;;
2388;SDS011;1205;47.984;7.668;2024-02-15T09:46:17;12.10;;;5.20;;
2388;SDS011;1205;47.984;7.668;2024-02-15T09:48:43;11.80;;;5.43;;
2388;SDS011;1205;47.984;7.668;2024-02-15T09:51:15;7.00;;;5.70;;
2388;SDS011;1205;47.984;7.668;2024-02-15T09:53:43;5.63;;;5.13;;
2388;SDS011;1205;47.984;7.668;2024-02-15T09:56:11;10.30;;;6.30;;
2388;SDS011;1205;47.984;7.668;2024-02-15T09:58:38;9.27;;;5.10;;
2388;SDS011;1205;47.984;7.668;2024-02-15T10:01:04;6.47;;;4.80;;
2388;SDS011;1205;47.984;7.668;2024-02-15T10:03:34;9.50;;;5.10;;
2388;SDS011;1205;47.984;7.668;2024-02-15T10:06:03;7.37;;;5.23;;
2388;SDS011;1205;47.984;7.668;2024-02-15T10:08:29;7.60;;;5.03;;
2388;SDS011;1205;47.984;7.668;2024-02-15T10:11:07;7.23;;;5.20;;
2388;SDS011;1205;47.984;7.668;2024-02-15T10:13:34;6.80;;;5.30;;
2388;SDS011;1205;47.984;7.668;2024-02-15T10:16:00;11.70;;;4.80;;
2388;SDS011;1205;47.984;7.668;2024-02-15T10:18:50;4.60;;;4.20;;
2388;SDS011;1205;47.984;7.668;2024-02-15T10:21:23;5.37;;;4.87;;
2388;SDS011;1205;47.984;7.668;2024-02-15T10:24:06;6.97;;;4.90;;
2388;SDS011;1205;47.984;7.668;2024-02-15T10:26:34;8.70;;;4.97;;
2388;SDS011;1205;47.984;7.668;2024-02-15T10:29:19;5.97;;;4.07;;
2388;SDS011;1205;47.984;7.668;2024-02-15T10:31:55;4.70;;;4.30;;
2388;SDS011;1205;47.984;7.668;2024-02-15T10:34:23;5.90;;;4.70;;
2388;SDS011;1205;47.984;7.668;2024-02-15T10:36:52;4.70;;;4.23;;
2388;SDS011;1205;47.984;7.668;2024-02-15T10:39:19;5.43;;;3.73;;
2388;SDS011;1205;47.984;7.668;2024-02-15T10:41:45;7.50;;;4.60;;
2388;SDS011;1205;47.984;7.668;2024-02-15T10:44:21;6.60;;;4.40;;
2388;SDS011;1205;47.984;7.668;2024-02-15T10:46:48;5.17;;;4.67;;
2388;SDS011;1205;47.984;7.668;2024-02-15T10:49:21;6.37;;;4.53;;
2388;SDS011;1205;47.984;7.668;2024-02-15T10:54:24;6.60;;;4.30;;
2388;SDS011;1205;47.984;7.668;2024-02-15T10:57:11;5.50;;;3.50;;
2388;SDS011;1205;47.984;7.668;2024-02-15T10:59:41;3.13;;;2.87;;
2388;SDS011;1205;47.984;7.668;2024-02-15T11:02:28;21.07;;;8.43;;
2388;SDS011;1205;47.984;7.668;2024-02-15T11:04:55;9.40;;;6.00;;
2388;SDS011;1205;47.984;7.668;2024-02-15T11:07:33;5.73;;;4.77;;
2388;SDS011;1205;47.984;7.668;2024-02-15T11:09:59;4.70;;;4.07;;
2388;SDS011;1205;47.984;7.668;2024-02-15T11:12:25;5.80;;;4.80;;
2388;SDS011;1205;47.984;7.668;2024-02-15T11:14:51;8.20;;;4.20;;
2388;SDS011;1205;47.984;7.668;2024-02-15T11:20:02;4.20;;;3.50;;
2388;SDS011;1205;47.984;7.668;2024-02-15T11:22:33;6.83;;;4.43;;
2388;SDS011;1205;47.984;7.668;2024-02-15T11:25:02;5.57;;;4.30;;
2388;SDS011;1205;47.984;7.668;2024-02-15T11:27:36;9.30;;;5.93;;
2388;SDS011;1205;47.984;7.668;2024-02-15T11:30:03;6.93;;;3.43;;
2388;SDS011;1205;47.984;7.668;2024-02-15T11:32:39;3.83;;;3.00;;
2388;SDS011;1205;47.984;7.668;2024-02-15T11:35:06;4.07;;;3.67;;
2388;SDS011;1205;47.984;7.668;2024-02-15T11:42:55;4.33;;;3.27;;
2388;SDS011;1205;47.984;7.668;2024-02-15T11:45:25;8.60;;;3.90;;
2388;SDS011;1205;47.984;7.668;2024-02-15T11:47:54;3.90;;;3.47;;
2388;SDS011;1205;47.984;7.668;2024-02-15T11:50:21;3.73;;;3.43;;
2388;SDS011;1205;47.984;7.668;2024-02-15T11:52:47;8.10;;;4.33;;
2388;SDS011;1205;47.984;7.668;2024-02-15T11:55:17;4.07;;;3.43;;
2388;SDS011;1205;47.984;7.668;2024-02-15T11:57:56;3.67;;;3.37;;
2388;SDS011;1205;47.984;7.668;2024-02-15T12:00:42;6.70;;;4.03;;
2388;SDS011;1205;47.984;7.668;2024-02-15T12:03:27;3.23;;;2.93;;
2388;SDS011;1205;47.984;7.668;2024-02-15T12:06:11;8.43;;;3.07;;
2388;SDS011;1205;47.984;7.668;2024-02-15T12:08:55;6.73;;;4.03;;
2388;SDS011;1205;47.984;7.668;2024-02-15T12:11:39;8.03;;;2.97;;
2388;SDS011;1205;47.984;7.668;2024-02-15T12:14:24;3.47;;;3.17;;
2388;SDS011;1205;47.984;7.668;2024-02-15T12:17:12;7.40;;;3.80;;
2388;SDS011;1205;47.984;7.668;2024-02-15T12:19:59;26.20;;;12.13;;
2388;SDS011;1205;47.984;7.668;2024-02-15T12:22:32;23.20;;;11.80;;
2388;SDS011;1205;47.984;7.668;2024-02-15T12:25:05;11.93;;;3.90;;
2388;SDS011;1205;47.984;7.668;2024-02-15T12:27:41;5.63;;;3.00;;
2388;SDS011;1205;47.984;7.668;2024-02-15T12:30:15;6.67;;;3.20;;
2388;SDS011;1205;47.984;7.668;2024-02-15T12:32:45;5.80;;;4.00;;
2388;SDS011;1205;47.984;7.668;2024-02-15T12:35:13;6.33;;;3.77;;
2388;SDS011;1205;47.984;7.668;2024-02-15T12:37:44;9.83;;;4.13;;
2388;SDS011;1205;47.984;7.668;2024-02-15T12:40:15;9.73;;;3.93;;
2388;SDS011;1205;47.984;7.668;2024-02-15T12:42:45;5.57;;;3.57;;
2388;SDS011;1205;47.984;7.668;2024-02-15T12:45:18;5.60;;;3.50;;
2388;SDS011;1205;47.984;7.668;2024-02-15T12:47:54;7.10;;;3.97;;
2388;SDS011;1205;47.984;7.668;2024-02-15T12:50:20;3.60;;;3.27;;
2388;SDS011;1205;47.984;7.668;2024-02-15T12:52:47;4.47;;;3.00;;
2388;SDS011;1205;47.984;7.668;2024-02-15T12:57:52;3.10;;;2.90;;
2388;SDS011;1205;47.984;7.668;2024-02-15T13:00:21;5.63;;;3.67;;
2388;SDS011;1205;47.984;7.668;2024-02-15T13:02:54;3.73;;;3.40;;
2388;SDS011;1205;47.984;7.668;2024-02-15T13:05:21;4.03;;;3.43;;
2388;SDS011;1205;47.984;7.668;2024-02-15T13:07:48;6.97;;;3.53;;
2388;SDS011;1205;47.984;7.668;2024-02-15T13:10:14;8.17;;;3.40;;
2388;SDS011;1205;47.984;7.668;2024-02-15T13:12:41;6.27;;;3.40;;
2388;SDS011;1205;47.984;7.668;2024-02-15T13:15:08;4.40;;;3.90;;
2388;SDS011;1205;47.984;7.668;2024-02-15T13:17:39;11.07;;;4.17;;
2388;SDS011;1205;47.984;7.668;2024-02-15T13:20:08;3.93;;;3.20;;
2388;SDS011;1205;47.984;7.668;2024-02-15T13:22:37;7.83;;;3.97;;
2388;SDS011;1205;47.984;7.668;2024-02-15T13:25:04;6.30;;;3.60;;
2388;SDS011;1205;47.984;7.668;2024-02-15T13:27:34;3.97;;;3.60;;
2388;SDS011;1205;47.984;7.668;2024-02-15T13:30:03;4.30;;;3.77;;
2388;SDS011;1205;47.984;7.668;2024-02-15T13:32:33;6.80;;;3.73;;
2388;SDS011;1205;47.984;7.668;2024-02-15T13:35:06;6.70;;;4.13;;
2388;SDS011;1205;47.984;7.668;2024-02-15T13:37:47;6.00;;;3.47;;
2388;SDS011;1205;47.984;7.668;2024-02-15T13:40:13;4.13;;;3.73;;
2388;SDS011;1205;47.984;7.668;2024-02-15T13:42:42;11.13;;;4.17;;
2388;SDS011;1205;47.984;7.668;2024-02-15T13:45:14;4.90;;;3.50;;
2388;SDS011;1205;47.984;7.668;2024-02-15T13:47:43;3.67;;;3.37;;
2388;SDS011;1205;47.984;7.668;2024-02-15T13:50:12;7.47;;;4.50;;
2388;SDS011;1205;47.984;7.668;2024-02-15T13:52:40;8.27;;;4.07;;
2388;SDS011;1205;47.984;7.668;2024-02-15T13:55:08;5.03;;;3.67;;
2388;SDS011;1205;47.984;7.668;2024-02-15T13:57:38;6.23;;;3.60;;
2388;SDS011;1205;47.984;7.668;2024-02-15T14:00:05;10.23;;;4.40;;
2388;SDS011;1205;47.984;7.668;2024-02-15T14:02:38;4.10;;;3.43;;
2388;SDS011;1205;47.984;7.668;2024-02-15T14:05:08;6.97;;;4.20;;
2388;SDS011;1205;47.984;7.668;2024-02-15T14:07:39;5.00;;;3.80;;
2388;SDS011;1205;47.984;7.668;2024-02-15T14:10:05;3.80;;;3.50;;
2388;SDS011;1205;47.984;7.668;2024-02-15T14:12:32;8.97;;;4.40;;
2388;SDS011;1205;47.984;7.668;2024-02-15T14:14:57;4.53;;;3.70;;
2388;SDS011;1205;47.984;7.668;2024-02-15T14:17:23;10.00;;;3.50;;
2388;SDS011;1205;47.984;7.668;2024-02-15T14:19:49;8.80;;;4.00;;
2388;SDS011;1205;47.984;7.668;2024-02-15T14:22:15;9.87;;;4.10;;
2388;SDS011;1205;47.984;7.668;2024-02-15T14:24:43;7.43;;;3.20;;
2388;SDS011;1205;47.984;7.668;2024-02-15T14:27:10;3.57;;;3.27;;
2388;SDS011;1205;47.984;7.668;2024-02-15T14:29:36;10.43;;;3.70;;
2388;SDS011;1205;47.984;7.668;2024-02-15T14:32:10;4.33;;;3.27;;
2388;SDS011;1205;47.984;7.668;2024-02-15T14:34:55;7.30;;;3.53;;
2388;SDS011;1205;47.984;7.668;2024-02-15T14:37:21;5.90;;;3.70;;
2388;SDS011;1205;47.984;7.668;2024-02-15T14:39:47;5.67;;;3.53;;
2388;SDS011;1205;47.984;7.668;2024-02-15T14:42:12;9.20;;;3.90;;
2388;SDS011;1205;47.984;7.668;2024-02-15T14:44:39;6.17;;;3.73;;
2388;SDS011;1205;47.984;7.668;2024-02-15T14:47:04;8.63;;;4.47;;
2388;SDS011;1205;47.984;7.668;2024-02-15T14:49:30;12.43;;;4.30;;
2388;SDS011;1205;47.984;7.668;2024-02-15T14:51:56;9.83;;;3.83;;
2388;SDS011;1205;47.984;7.668;2024-02-15T14:54:21;9.93;;;3.93;;
2388;SDS011;1205;47.984;7.668;2024-02-15T14:56:47;13.70;;;4.67;;
2388;SDS011;1205;47.984;7.668;2024-02-15T14:59:13;13.13;;;3.30;;
2388;SDS011;1205;47.984;7.668;2024-02-15T15:01:40;11.53;;;3.63;;
2388;SDS011;1205;47.984;7.668;2024-02-15T15:04:06;17.60;;;4.43;;
2388;SDS011;1205;47.984;7.668;2024-02-15T15:06:33;11.77;;;3.10;;
2388;SDS011;1205;47.984;7.668;2024-02-15T15:09:17;13.80;;;3.27;;
2388;SDS011;1205;47.984;7.668;2024-02-15T15:12:01;26.23;;;3.97;;
2388;SDS011;1205;47.984;7.668;2024-02-15T15:14:45;11.40;;;5.80;;
2388;SDS011;1205;47.984;7.668;2024-02-15T15:17:11;16.83;;;6.20;;
2388;SDS011;1205;47.984;7.668;2024-02-15T15:19:41;14.23;;;6.20;;
2388;SDS011;1205;47.984;7.668;2024-02-15T15:22:06;10.37;;;3.53;;
2388;SDS011;1205;47.984;7.668;2024-02-15T15:24:32;12.40;;;2.80;;
2388;SDS011;1205;47.984;7.668;2024-02-15T15:26:58;10.53;;;2.80;;
2388;SDS011;1205;47.984;7.668;2024-02-15T15:29:24;23.17;;;2.73;;
2388;SDS011;1205;47.984;7.668;2024-02-15T15:31:50;6.77;;;2.57;;
2388;SDS011;1205;47.984;7.668;2024-02-15T15:34:16;4.43;;;2.40;;